Flight Track Log - Related Links

Times and Time Zones

All times are in EDT time to prevent confusion due to time zone crossing. See the UAL1493 flight status page for this flight to view local times or setup timezone preferences in your user account.

Time Position Orientation Groundspeed Altitude Reporting Facility
EDT Latitude Longitude Course Direction KTS MPH feet Rate Location/Type
Sat 07:39:33 PM 40.6333 -74.2167 270° West 210 242 2,500  Level New York TRACON
Sat 07:40:33 PM 40.6333 -74.3000 270° West 255 293 4,500 2,550 Climbing New York TRACON
Sat 07:41:00 PM 40.7368 -74.6140 282° West  Level FlightAware Approximate
Sat 07:41:33 PM 40.6500 -74.3833 285° West 256 295 7,600  Level New York TRACON
Sat 07:42:00 PM 40.7551 -74.7654 276° West  Level FlightAware Approximate
Sat 07:42:27 PM 40.6667 -74.4667 285° West 279 321 9,800  Level New York TRACON
Sat 07:43:00 PM 40.7673 -74.9179 303° West  Level FlightAware Approximate
Sat 07:44:00 PM 40.7833 -75.0651 270° West  Level FlightAware Approximate
Sat 07:44:00 PM 40.7564 -74.5844 315° West 297 342 13,300  Level New York Center
Sat 07:45:02 PM 40.7986 -74.6883 298° West 302 348 15,000 1,820 Climbing New York Center
Sat 07:46:02 PM 40.7992 -74.8006 270° West 317 365 17,000 1,636 Climbing New York Center
Sat 07:47:03 PM 40.8025 -74.9406 272° West 350 403 18,300 992 Climbing New York Center
Sat 07:48:03 PM 40.8042 -75.0722 271° West 385 443 19,000 1,068 Climbing New York Center
Sat 07:49:01 PM 40.7881 -75.2275 262° West 403 464 20,400 1,462 Climbing New York Center
Sat 07:50:02 PM 40.7633 -75.3822 258° West 426 490 21,900 1,388 Climbing New York Center
Sat 07:51:02 PM 40.7136 -75.5294 246° West 436 502 23,200 1,240 Climbing New York Center
Sat 07:52:03 PM 40.6553 -75.6814 243° Southwest 447 514 24,400 1,140 Climbing New York Center
Sat 07:53:03 PM 40.5989 -75.8331 244° Southwest 459 528 25,500 1,017 Climbing New York Center
Sat 07:54:01 PM 40.5358 -75.9894 242° Southwest 472 543 26,400 1,017 Climbing New York Center
Sat 07:55:01 PM 40.4767 -76.1461 244° Southwest 482 555 27,500 1,131 Climbing New York Center
Sat 07:56:03 PM 40.4153 -76.3022 243° Southwest 487 560 28,700 1,388 Climbing New York Center
Sat 07:57:02 PM 40.3558 -76.4581 243° Southwest 487 560 30,300 1,412 Climbing New York Center
Sat 07:58:02 PM 40.2961 -76.6111 243° Southwest 482 555 31,500 992 Climbing New York Center
Sat 07:59:03 PM 40.2489 -76.7650 248° West 476 548 32,300 934 Climbing New York Center
Sat 08:00:04 PM 40.2131 -76.9331 254° West 476 548 33,400 850 Climbing New York Center
Sat 08:01:03 PM 40.1753 -77.0981 253° West 476 548 34,000 308 Climbing New York Center
Sat 08:02:01 PM 40.1375 -77.2578 253° West 471 542 34,000  Level New York Center
Sat 08:04:23 PM 40.1172 -77.6644 266° West 460 529 34,000  Level Cleveland Center
Sat 08:05:23 PM 40.1153 -77.8328 269° West 465 535 34,000  Level Cleveland Center
Sat 08:06:23 PM 40.1067 -78.0044 266° West 470 541 34,000  Level Cleveland Center
Sat 08:07:23 PM 40.1042 -78.1753 269° West 470 541 34,000  Level Cleveland Center
Sat 08:08:23 PM 40.1014 -78.3439 269° West 470 541 34,000  Level Cleveland Center
Sat 08:09:23 PM 40.1047 -78.5147 272° West 470 541 34,000  Level Cleveland Center
Sat 08:10:23 PM 40.1097 -78.6856 272° West 476 548 34,000  Level Cleveland Center
Sat 08:11:23 PM 40.1125 -78.8619 271° West 476 548 34,000  Level Cleveland Center
Sat 08:12:23 PM 40.1150 -79.0383 271° West 476 548 34,000  Level Cleveland Center
Sat 08:13:23 PM 40.1172 -79.2094 271° West 481 554 34,000  Level Cleveland Center
Sat 08:14:23 PM 40.1233 -79.3667 273° West 481 554 34,000  Level Cleveland Center
Sat 08:15:23 PM 40.1250 -79.5406 271° West 481 554 34,000  Level Cleveland Center
Sat 08:16:23 PM 40.1264 -79.7142 271° West 481 554 34,000  Level Cleveland Center
Sat 08:17:23 PM 40.1297 -79.8908 271° West 481 554 34,000  Level Cleveland Center
Sat 08:18:23 PM 40.1286 -80.0889 270° West 486 559 34,000  Level Cleveland Center
Sat 08:19:23 PM 40.1272 -80.2628 269° West 491 565 34,000  Level Cleveland Center
Sat 08:20:23 PM 40.1339 -80.4364 273° West 491 565 34,000  Level Cleveland Center
Sat 08:21:23 PM 40.1339 -80.6103 270° West 486 559 34,000  Level Cleveland Center
Sat 08:22:23 PM 40.1358 -80.7867 271° West 486 559 34,000  Level Cleveland Center
Sat 08:23:23 PM 40.1353 -80.9606 270° West 486 559 34,000  Level Cleveland Center
Sat 08:24:49 PM 40.1317 -81.1992 269° West 485 558 34,000  Level Indianapolis Center
Sat 08:25:50 PM 40.1317 -81.3783 270° West 487 560 34,000  Level Indianapolis Center
Sat 08:26:51 PM 40.1300 -81.5581 269° West 488 562 34,000  Level Indianapolis Center
Sat 08:27:53 PM 40.1178 -81.7361 265° West 494 568 34,000 -49 Level Indianapolis Center
Sat 08:28:53 PM 40.0761 -81.9186 253° West 488 562 33,900 -49 Descending Indianapolis Center
Sat 08:29:55 PM 40.0375 -82.0908 254° West 490 564 33,900  Level Indianapolis Center
Sat 08:30:56 PM 39.9989 -82.2617 254° West 490 564 33,900 49 Level Indianapolis Center
Sat 08:31:57 PM 39.9617 -82.4333 254° West 488 562 34,000  Climbing Indianapolis Center
Sat 08:32:58 PM 39.9236 -82.6067 254° West 493 567 33,900 -49 Descending Indianapolis Center
Sat 08:33:59 PM 39.8875 -82.7806 255° West 493 567 33,900 49 Level Indianapolis Center
Sat 08:35:00 PM 39.8533 -82.9553 256° West 494 568 34,000  Climbing Indianapolis Center
Sat 08:36:02 PM 39.8186 -83.1283 255° West 489 563 33,900 -49 Descending Indianapolis Center
Sat 08:37:03 PM 39.7842 -83.3039 256° West 493 567 33,900 49 Level Indianapolis Center
Sat 08:38:04 PM 39.7481 -83.4869 256° West 503 579 34,000  Climbing Indianapolis Center
Sat 08:39:05 PM 39.7236 -83.6711 260° West 502 578 33,900 -49 Descending Indianapolis Center
Sat 08:40:06 PM 39.7044 -83.8511 262° West 497 572 33,900  Level Indianapolis Center
Sat 08:41:07 PM 39.6981 -84.0314 267° West 497 572 33,900 49 Level Indianapolis Center
Sat 08:42:08 PM 39.7019 -84.2131 272° West 497 572 34,000  Climbing Indianapolis Center
Sat 08:43:09 PM 39.7039 -84.3939 271° West 496 571 33,900 -49 Descending Indianapolis Center
Sat 08:44:10 PM 39.7044 -84.5742 270° West 497 572 33,900 49 Level Indianapolis Center
Sat 08:45:11 PM 39.7025 -84.7567 269° West 500 575 34,000 148 Climbing Indianapolis Center
Sat 08:46:12 PM 39.6636 -84.9136 252° West 494 568 34,200 585 Climbing Indianapolis Center
Sat 08:47:14 PM 39.6153 -85.0792 249° West 493 567 35,200 878 Climbing Indianapolis Center
Sat 08:48:15 PM 39.5775 -85.2842 257° West 490 564 36,000 393 Climbing Indianapolis Center
Sat 08:49:16 PM 39.5786 -85.4608 271° West 491 565 36,000  Level Indianapolis Center
Sat 08:50:17 PM 39.5775 -85.6400 270° West 496 571 36,000  Level Indianapolis Center
Sat 08:51:18 PM 39.5778 -85.8164 270° West 492 566 36,000  Level Indianapolis Center
Sat 08:52:19 PM 39.5767 -85.9925 270° West 488 562 36,000  Level Indianapolis Center
Sat 08:53:20 PM 39.5756 -86.1694 270° West 486 559 36,000  Level Indianapolis Center
Sat 08:54:21 PM 39.5747 -86.3486 270° West 487 560 36,000  Level Indianapolis Center
Sat 08:55:22 PM 39.5736 -86.5258 270° West 486 559 36,000  Level Indianapolis Center
Sat 08:56:23 PM 39.5719 -86.6994 269° West 481 554 36,000  Level Indianapolis Center
Sat 08:57:24 PM 39.5694 -86.8742 269° West 484 557 36,000  Level Indianapolis Center
Sat 08:58:25 PM 39.5675 -87.0483 269° West 484 557 36,000  Level Indianapolis Center
Sat 08:59:26 PM 39.5650 -87.2214 269° West 483 556 36,000  Level Indianapolis Center
Sat 09:00:27 PM 39.5619 -87.3944 269° West 482 555 36,000  Level Indianapolis Center
Sat 09:01:28 PM 39.5583 -87.5650 268° West 476 548 36,000  Level Indianapolis Center
Sat 09:02:29 PM 39.5550 -87.7333 269° West 468 539 36,000  Level Indianapolis Center
Sat 09:03:29 PM 39.5511 -87.9008 268° West 466 536 36,000  Level Indianapolis Center
Sat 09:04:30 PM 39.5472 -88.0669 268° West 465 535 36,000  Level Indianapolis Center
Sat 09:05:31 PM 39.5433 -88.2339 268° West 464 534 36,000  Level Indianapolis Center
Sat 09:06:32 PM 39.5392 -88.4072 268° West 467 537 36,000  Level Indianapolis Center
Sat 09:07:02 PM 39.5369 -88.5078 268° West 464 534 36,000  Level Kansas City Center
Sat 09:08:03 PM 39.5325 -88.6669 268° West 470 541 36,000  Level Kansas City Center
Sat 09:09:04 PM 39.5264 -88.8364 267° West 472 543 36,000  Level Kansas City Center
Sat 09:10:06 PM 39.5214 -89.0064 268° West 471 542 36,000  Level Kansas City Center
Sat 09:11:07 PM 39.5164 -89.1731 268° West 466 536 36,000  Level Kansas City Center
Sat 09:12:08 PM 39.5092 -89.3517 267° West 463 533 36,000  Level Kansas City Center
Sat 09:13:10 PM 39.5039 -89.5172 268° West 463 533 36,000  Level Kansas City Center
Sat 09:14:11 PM 39.4983 -89.6828 268° West 464 534 36,000 246 Level Kansas City Center
Sat 09:15:12 PM 39.4906 -89.8822 267° West 465 535 36,500 492 Climbing Kansas City Center
Sat 09:16:13 PM 39.4839 -90.0494 267° West 466 536 37,000 244 Climbing Kansas City Center
Sat 09:17:15 PM 39.4764 -90.2178 267° West 470 541 37,000  Level Kansas City Center
Sat 09:18:16 PM 39.4694 -90.3858 267° West 472 543 37,000  Level Kansas City Center
Sat 09:19:17 PM 39.4631 -90.5531 267° West 471 542 37,000  Level Kansas City Center
Sat 09:20:18 PM 39.4547 -90.7183 266° West 468 539 37,000  Level Kansas City Center
Sat 09:21:20 PM 39.4467 -90.8822 266° West 465 535 37,000  Level Kansas City Center
Sat 09:22:21 PM 39.4389 -91.0433 266° West 458 527 37,000  Level Kansas City Center
Sat 09:23:22 PM 39.4289 -91.2392 266° West 457 526 37,000  Level Kansas City Center
Sat 09:24:23 PM 39.4194 -91.4017 266° West 457 526 37,000  Level Kansas City Center
Sat 09:25:24 PM 39.4111 -91.5633 266° West 455 524 37,000  Level Kansas City Center
Sat 09:26:26 PM 39.4017 -91.7317 266° West 453 521 37,000  Level Kansas City Center
Sat 09:27:27 PM 39.3922 -91.8942 266° West 454 522 37,000  Level Kansas City Center
Sat 09:28:28 PM 39.3847 -92.0539 267° West 451 519 37,000  Level Kansas City Center
Sat 09:29:29 PM 39.3761 -92.2108 266° West 445 512 37,000  Level Kansas City Center
Sat 09:30:30 PM 39.3647 -92.3697 265° West 445 512 37,000  Level Kansas City Center
Sat 09:31:32 PM 39.3556 -92.5281 266° West 445 512 37,000  Level Kansas City Center
Sat 09:32:33 PM 39.3461 -92.6839 266° West 441 507 37,000  Level Kansas City Center
Sat 09:33:34 PM 39.3361 -92.8394 265° West 439 505 37,000  Level Kansas City Center
Sat 09:34:35 PM 39.3222 -93.0231 264° West 433 498 37,000  Level Kansas City Center
Sat 09:35:36 PM 39.3128 -93.1789 266° West 435 501 37,000  Level Kansas City Center
Sat 09:36:38 PM 39.3017 -93.3328 265° West 435 501 37,000  Level Kansas City Center
Sat 09:37:39 PM 39.2906 -93.4886 265° West 437 503 37,000  Level Kansas City Center
Sat 09:38:40 PM 39.2806 -93.6433 265° West 436 502 37,000  Level Kansas City Center
Sat 09:39:41 PM 39.2694 -93.8031 265° West 431 496 37,000 195 Level Kansas City Center
Sat 09:40:43 PM 39.2567 -93.9742 265° West 431 496 37,400 488 Climbing Kansas City Center
Sat 09:41:44 PM 39.2456 -94.1183 264° West 424 488 38,000 295 Climbing Kansas City Center
Sat 09:42:45 PM 39.2344 -94.2650 264° West 426 490 38,000  Level Kansas City Center
Sat 09:43:46 PM 39.2211 -94.4325 264° West 423 487 38,000  Level Kansas City Center
Sat 09:44:47 PM 39.2089 -94.5739 264° West 416 479 38,000  Level Kansas City Center
Sat 09:45:48 PM 39.1981 -94.7178 264° West 420 483 38,000  Level Kansas City Center
Sat 09:46:50 PM 39.1839 -94.8858 264° West 424 488 38,000  Level Kansas City Center
Sat 09:47:51 PM 39.1722 -95.0294 264° West 418 481 38,000  Level Kansas City Center
Sat 09:48:52 PM 39.1578 -95.1928 264° West 422 486 38,000  Level Kansas City Center
Sat 09:49:53 PM 39.1453 -95.3392 264° West 415 478 38,000  Level Kansas City Center
Sat 09:50:54 PM 39.1325 -95.4878 264° West 412 474 38,000  Level Kansas City Center
Sat 09:51:55 PM 39.1203 -95.6272 264° West 410 472 38,000  Level Kansas City Center
Sat 09:52:57 PM 39.1061 -95.7906 264° West 411 473 38,000  Level Kansas City Center
Sat 09:53:58 PM 39.0931 -95.9317 263° West 414 476 38,000  Level Kansas City Center
Sat 09:54:59 PM 39.0800 -96.0719 263° West 414 476 38,000  Level Kansas City Center
Sat 09:56:00 PM 39.0639 -96.2358 263° West 413 475 38,000  Level Kansas City Center
Sat 09:57:01 PM 39.0506 -96.3761 263° West 412 474 38,000  Level Kansas City Center
Sat 09:58:03 PM 39.0372 -96.5161 263° West 412 474 38,000  Level Kansas City Center
Sat 09:59:04 PM 39.0203 -96.6789 262° West 412 474 38,000  Level Kansas City Center
Sat 10:00:05 PM 39.0064 -96.8169 263° West 408 470 38,000  Level Kansas City Center
Sat 10:01:06 PM 38.9914 -96.9775 263° West 407 468 38,000  Level Kansas City Center
Sat 10:02:07 PM 38.9800 -97.1008 263° West 411 473 38,000  Level Kansas City Center
Sat 10:03:08 PM 38.9617 -97.2744 262° West 410 472 38,000  Level Kansas City Center
Sat 10:04:09 PM 38.9469 -97.4181 263° West 406 467 38,000  Level Kansas City Center
Sat 10:05:11 PM 38.9325 -97.5550 262° West 406 467 38,000  Level Kansas City Center
Sat 10:06:12 PM 38.9161 -97.6933 261° West 408 470 38,000  Level Kansas City Center
Sat 10:07:13 PM 38.8975 -97.8508 261° West 413 475 38,000  Level Kansas City Center
Sat 10:08:14 PM 38.8800 -97.9986 261° West 419 482 38,000  Level Kansas City Center
Sat 10:09:15 PM 38.8611 -98.1433 261° West 414 476 38,000  Level Kansas City Center
Sat 10:10:16 PM 38.8433 -98.2894 261° West 416 479 38,000  Level Kansas City Center
Sat 10:11:17 PM 38.8242 -98.4347 260° West 415 478 38,000  Level Kansas City Center
Sat 10:12:18 PM 38.8069 -98.5797 261° West 413 475 38,000  Level Kansas City Center
Sat 10:13:19 PM 38.7867 -98.7250 260° West 415 478 38,000  Level Kansas City Center
Sat 10:14:20 PM 38.7636 -98.8986 260° West 413 475 38,000  Level Kansas City Center
Sat 10:15:21 PM 38.7444 -99.0442 260° West 416 479 38,000  Level Kansas City Center
Sat 10:16:22 PM 38.7267 -99.1908 261° West 417 480 38,000  Level Kansas City Center
Sat 10:17:24 PM 38.7069 -99.3381 260° West 420 483 38,000  Level Kansas City Center
Sat 10:18:25 PM 38.6856 -99.4836 259° West 419 482 38,000  Level Kansas City Center
Sat 10:19:26 PM 38.6661 -99.6339 261° West 421 484 38,000  Level Kansas City Center
Sat 10:20:27 PM 38.6383 -99.7964 258° West 421 484 38,000  Level Kansas City Center
Sat 10:21:28 PM 38.6122 -99.9353 257° West 421 484 38,000  Level Kansas City Center
Sat 10:22:29 PM 38.5858 -100.0722 256° West 417 480 38,000  Level Kansas City Center
Sat 10:23:30 PM 38.5567 -100.2289 257° West 411 473 38,000  Level Kansas City Center
Sat 10:24:31 PM 38.5303 -100.3650 256° West 412 474 38,000  Level Kansas City Center
Sat 10:25:32 PM 38.5006 -100.5225 256° West 411 473 38,000  Level Kansas City Center
Sat 10:26:33 PM 38.4744 -100.6556 256° West 408 470 38,000  Level Kansas City Center
Sat 10:27:18 PM 38.4528 -100.7628 256° West 403 464 38,000  Level Denver Center
Sat 10:28:20 PM 38.4267 -100.8939 256° West 401 461 38,000  Level Denver Center
Sat 10:29:21 PM 38.3969 -101.0478 256° West 402 463 38,000  Level Denver Center
Sat 10:30:23 PM 38.3708 -101.1811 256° West 405 466 38,000  Level Denver Center
Sat 10:31:24 PM 38.3436 -101.3150 256° West 410 472 38,000  Level Denver Center
Sat 10:32:25 PM 38.3175 -101.4517 256° West 416 479 38,000  Level Denver Center
Sat 10:33:27 PM 38.2844 -101.6103 255° West 416 479 38,000  Level Denver Center
Sat 10:34:28 PM 38.2525 -101.7658 255° West 411 473 38,000  Level Denver Center
Sat 10:35:29 PM 38.2261 -101.8956 256° West 400 460 38,000  Level Denver Center
Sat 10:36:31 PM 38.1992 -102.0272 255° West 402 463 38,000  Level Denver Center
Sat 10:37:32 PM 38.1678 -102.1808 255° West 404 465 38,000  Level Denver Center
Sat 10:38:33 PM 38.1408 -102.3108 255° West 400 460 38,000  Level Denver Center
Sat 10:39:34 PM 38.1083 -102.4619 255° West 400 460 38,000  Level Denver Center
Sat 10:40:36 PM 38.0811 -102.5939 255° West 404 465 38,000  Level Denver Center
Sat 10:41:37 PM 38.0525 -102.7256 255° West 406 467 38,000  Level Denver Center
Sat 10:42:38 PM 38.0211 -102.8756 255° West 405 466 38,000  Level Denver Center
Sat 10:43:39 PM 37.9931 -103.0069 255° West 404 465 38,000  Level Denver Center
Sat 10:44:41 PM 37.9603 -103.1592 255° West 400 460 38,000  Level Denver Center
Sat 10:45:42 PM 37.9319 -103.2883 254° West 399 459 38,000  Level Denver Center
Sat 10:46:43 PM 37.8992 -103.4369 254° West 393 452 38,000  Level Denver Center
Sat 10:47:44 PM 37.8714 -103.5689 255° West 404 465 38,000  Level Denver Center
Sat 10:48:46 PM 37.8414 -103.7028 254° West 412 474 38,000  Level Denver Center
Sat 10:49:47 PM 37.8072 -103.8569 254° West 412 474 38,000  Level Denver Center
Sat 10:50:48 PM 37.7781 -103.9881 254° West 409 471 38,000  Level Denver Center
Sat 10:51:49 PM 37.7442 -104.1392 254° West 406 467 38,000  Level Denver Center
Sat 10:52:50 PM 37.7144 -104.2681 254° West 404 465 38,000  Level Denver Center
Sat 10:53:51 PM 37.6806 -104.4175 254° West 400 460 38,000  Level Denver Center
Sat 10:55:05 PM 37.6503 -104.5464 254° West 402 463 38,000  Level Denver Center
Sat 10:56:06 PM 37.6108 -104.7186 254° West 400 460 38,000  Level Denver Center
Sat 10:57:07 PM 37.5803 -104.8464 253° West 399 459 38,000  Level Denver Center
Sat 10:58:08 PM 37.5506 -104.9750 254° West 400 460 38,000  Level Denver Center
Sat 10:59:09 PM 37.5144 -105.1258 253° West 402 463 38,000  Level Denver Center
Sat 11:00:10 PM 37.4917 -105.2272 254° West 408 470 38,000  Level Denver Center
Sat 11:01:12 PM 37.4486 -105.4017 253° West 409 471 38,000  Level Denver Center
Sat 11:02:13 PM 37.4178 -105.5319 253° West 406 467 38,000  Level Denver Center
Sat 11:03:14 PM 37.3808 -105.6806 253° West 399 459 38,000  Level Denver Center
Sat 11:04:15 PM 37.3492 -105.8083 253° West 400 460 38,000  Level Denver Center
Sat 11:05:16 PM 37.3206 -105.9369 254° West 400 460 38,000  Level Denver Center
Sat 11:06:17 PM 37.2806 -106.0847 251° West 399 459 38,000  Level Denver Center
Sat 11:07:18 PM 37.2486 -106.2111 252° West 398 458 38,000  Level Denver Center
Sat 11:08:19 PM 37.2106 -106.3578 252° West 396 456 38,000  Level Denver Center
Sat 11:09:20 PM 37.1786 -106.4858 253° West 401 461 38,000  Level Denver Center
Sat 11:10:21 PM 37.1450 -106.6156 252° West 408 470 38,000  Level Denver Center
Sat 11:11:22 PM 37.1044 -106.7692 252° West 415 478 38,000  Level Denver Center
Sat 11:12:24 PM 37.0703 -106.9000 252° West 415 478 38,000  Level Denver Center
Sat 11:13:37 PM 37.0358 -107.0286 251° West 408 470 38,000  Level Denver Center
Sat 11:14:38 PM 36.9897 -107.1997 251° West 408 470 38,000  Level Denver Center
Sat 11:15:39 PM 36.9561 -107.3292 252° West 409 471 38,000  Level Denver Center
Sat 11:16:40 PM 36.9172 -107.4739 251° West 395 455 38,000  Level Denver Center
Sat 11:17:41 PM 36.8836 -107.5983 251° West 395 455 38,000  Level Denver Center
Sat 11:18:42 PM 36.8556 -107.7031 252° West 397 457 38,000  Level Denver Center
Sat 11:19:43 PM 36.8106 -107.8711 252° West 399 459 38,000  Level Denver Center
Sat 11:20:44 PM 36.7772 -107.9978 252° West 401 461 38,000  Level Denver Center
Sat 11:21:45 PM 36.7392 -108.1447 252° West 400 460 38,000  Level Denver Center
Sat 11:22:46 PM 36.7156 -108.2781 258° West 410 472 38,000  Level Denver Center
Sat 11:23:47 PM 36.6911 -108.4100 257° West 409 471 38,000  Level Denver Center
Sat 11:24:48 PM 36.6628 -108.5628 257° West 409 471 38,000  Level Denver Center
Sat 11:25:49 PM 36.6378 -108.6947 257° West 410 472 38,000  Level Denver Center
Sat 11:26:50 PM 36.6089 -108.8492 257° West 412 474 38,000  Level Denver Center
Sat 11:27:51 PM 36.5836 -108.9797 256° West 409 471 38,000  Level Denver Center
Sat 11:28:52 PM 36.5583 -109.1125 257° West 414 476 38,000  Level Denver Center
Sat 11:29:53 PM 36.5281 -109.2675 256° West 417 480 38,000  Level Denver Center
Sat 11:30:54 PM 36.5069 -109.3775 257° West 413 475 38,000  Level Denver Center
Sat 11:31:55 PM 36.4767 -109.5311 256° West 411 473 38,000  Level Denver Center
Sat 11:32:56 PM 36.4456 -109.6850 256° West 413 475 38,000  Level Denver Center
Sat 11:33:57 PM 36.4192 -109.8169 256° West 411 473 38,000  Level Denver Center
Sat 11:34:58 PM 36.3892 -109.9697 256° West 408 470 38,000  Level Denver Center
Sat 11:36:11 PM 36.3628 -110.0994 256° West 408 470 38,000  Level Denver Center
Sat 11:37:13 PM 36.3275 -110.2717 256° West 408 470 38,000  Level Denver Center
Sat 11:38:13 PM 36.2989 -110.4111 256° West 414 476 38,000  Level Denver Center
Sat 11:39:14 PM 36.2722 -110.5478 256° West 411 473 38,000  Level Denver Center
Sat 11:40:15 PM 36.2439 -110.6872 256° West 414 476 38,000  Level Denver Center
Sat 11:41:28 PM 36.2139 -110.8278 255° West 420 483 38,000  Level Denver Center
Sat 11:42:29 PM 36.1839 -110.9692 255° West 423 487 38,000  Level Denver Center
Sat 11:43:30 PM 36.1483 -111.1369 255° West 421 484 38,000  Level Denver Center
Sat 11:44:31 PM 36.1189 -111.2747 255° West 417 480 38,000  Level Denver Center
Sat 11:45:32 PM 36.0906 -111.4139 256° West 417 480 38,000  Level Denver Center
Sat 11:46:33 PM 36.0531 -111.5492 251° West 417 480 38,000  Level Denver Center
Sat 11:47:34 PM 36.0092 -111.6825 248° West 418 481 38,000  Level Denver Center
Sat 11:48:35 PM 35.9667 -111.8153 248° West 417 480 38,000  Level Denver Center
Sat 11:49:35 PM 35.9250 -111.9458 249° West 412 474 38,000  Level Denver Center
Sat 11:50:36 PM 35.8825 -112.0761 248° West 410 472 38,000  Level Denver Center
Sat 11:51:37 PM 35.8328 -112.2322 249° West 408 470 38,000  Level Denver Center
Sat 11:52:38 PM 35.7892 -112.3619 248° West 409 471 38,000  Level Denver Center
Sat 11:54:00 PM 35.7311 -112.5383 248° West 413 475 38,000  Level Los Angeles Center
Sat 11:55:01 PM 35.6892 -112.6672 248° West 411 473 38,000  Level Los Angeles Center
Sat 11:56:03 PM 35.6431 -112.8056 248° West 412 474 38,000  Level Los Angeles Center
Sat 11:57:04 PM 35.5994 -112.9350 248° West 410 472 38,000  Level Los Angeles Center
Sat 11:58:05 PM 35.5606 -113.0494 247° West 405 466 38,000  Level Los Angeles Center
Sat 11:59:07 PM 35.5172 -113.1831 248° West 418 481 38,000  Level Los Angeles Center
Sun 12:00:08 AM 35.4675 -113.3297 247° West 407 468 38,000  Level Los Angeles Center
Sun 12:01:10 AM 35.4244 -113.4553 247° West 405 466 38,000  Level Los Angeles Center
Sun 12:02:11 AM 35.3819 -113.5811 248° West 405 466 38,000  Level Los Angeles Center
Sun 12:03:12 AM 35.3383 -113.7072 247° West 404 465 38,000  Level Los Angeles Center
Sun 12:04:14 AM 35.2944 -113.8331 247° West 405 466 38,000  Level Los Angeles Center
Sun 12:05:15 AM 35.2461 -113.9733 247° West 404 465 38,000  Level Los Angeles Center
Sun 12:06:16 AM 35.2028 -114.1000 247° West 404 465 38,000  Level Los Angeles Center
Sun 12:07:18 AM 35.1589 -114.2294 248° West 409 471 38,000  Level Los Angeles Center
Sun 12:08:19 AM 35.1128 -114.3575 246° West 410 472 38,000  Level Los Angeles Center
Sun 12:09:20 AM 35.0686 -114.4858 247° West 409 471 38,000  Level Los Angeles Center
Sun 12:10:22 AM 35.0233 -114.6144 247° West 409 471 38,000  Level Los Angeles Center
Sun 12:11:23 AM 34.9681 -114.7678 246° West 410 472 38,000  Level Los Angeles Center
Sun 12:12:24 AM 34.9236 -114.8939 247° West 406 467 38,000  Level Los Angeles Center
Sun 12:13:25 AM 34.8800 -115.0189 247° West 403 464 38,000  Level Los Angeles Center
Sun 12:14:27 AM 34.8350 -115.1450 247° West 404 465 38,000  Level Los Angeles Center
Sun 12:15:28 AM 34.7897 -115.2706 246° West 405 466 38,000  Level Los Angeles Center
Sun 12:16:29 AM 34.7444 -115.3961 246° West 404 465 38,000 -49 Level Los Angeles Center
Sun 12:17:30 AM 34.6986 -115.5211 246° West 405 466 37,900 -541 Descending Los Angeles Center
Sun 12:18:31 AM 34.6539 -115.6475 247° West 404 465 36,900 -934 Descending Los Angeles Center
Sun 12:19:32 AM 34.6078 -115.7733 246° West 407 468 36,000 -934 Descending Los Angeles Center
Sun 12:20:33 AM 34.5600 -115.9000 245° Southwest 410 472 35,000 -934 Descending Los Angeles Center
Sun 12:21:34 AM 34.5131 -116.0314 247° West 420 483 34,100 -927 Descending Los Angeles Center
Sun 12:22:36 AM 34.4636 -116.1639 246° West 429 494 33,100 -927 Descending Los Angeles Center
Sun 12:23:37 AM 34.4139 -116.2964 246° West 431 496 32,200 -984 Descending Los Angeles Center
Sun 12:24:38 AM 34.3633 -116.4314 246° West 439 505 31,100 -1,721 Descending Los Angeles Center
Sun 12:25:39 AM 34.3156 -116.5600 246° West 422 486 28,700 -2,311 Descending Los Angeles Center
Sun 12:26:40 AM 34.2681 -116.6856 245° Southwest 411 473 26,400 -2,410 Descending Los Angeles Center
Sun 12:27:41 AM 34.2144 -116.8286 246° West 392 451 23,800 -2,361 Descending Los Angeles Center
Sun 12:28:42 AM 34.1694 -116.9450 245° Southwest 383 441 21,600 -2,132 Descending Los Angeles Center
Sun 12:29:42 AM 34.1269 -117.0569 245° Southwest 369 425 19,500 -2,092 Descending Los Angeles Center
Sun 12:30:31 AM 34.0833 -117.1500 241° Southwest 351 404 17,800 -1,982 Descending Southern California TRACON
Sun 12:31:31 AM 34.0500 -117.2500 248° West 340 391 15,900 -1,850 Descending Southern California TRACON
Sun 12:32:31 AM 34.0333 -117.3667 260° West 327 376 14,100 -1,429 Descending Southern California TRACON
Sun 12:33:37 AM 34.0333 -117.4667 270° West 294 338 12,900 -1,238 Descending Southern California TRACON
Sun 12:34:37 AM 34.0167 -117.5667 259° West 319 367 11,500 -1,461 Descending Southern California TRACON
Sun 12:35:32 AM 34.0167 -117.6500 270° West 306 352 10,100 -1,200 Descending Southern California TRACON
Sun 12:36:32 AM 34.0000 -117.7500 259° West 277 319 9,200 -1,150 Descending Southern California TRACON
Sun 12:37:32 AM 33.9833 -117.8500 259° West 289 333 7,800 -1,300 Descending Southern California TRACON
Sun 12:38:32 AM 33.9833 -117.9333 270° West 282 325 6,600 -1,143 Descending Southern California TRACON
Sun 12:39:38 AM 33.9667 -118.0500 260° West 265 305 5,400 -952 Descending Southern California TRACON
Sun 12:40:38 AM 33.9667 -118.1333 270° West 235 270 4,600 -1,050 Descending Southern California TRACON
Sun 12:41:38 AM 33.9500 -118.2000 253° West 199 229 3,300 -1,200 Descending Southern California TRACON
Sun 12:42:38 AM 33.9500 -118.2500 270° West 188 216 2,200 -1,050 Descending Southern California TRACON
Sun 12:43:38 AM 33.9500 -118.3167 270° West 179 206 1,200 -900 Descending Southern California TRACON
Sun 12:44:38 AM 33.9333 -118.3667 248° West 149 171 400 7,629 Descending Southern California TRACON
Sun 12:45:58 AM 33.9336 -118.4231 270° West 161 185 19,000 13,950 Climbing Los Angeles Center
Sun 12:47:00 AM 33.9333 -118.4000 259° West  Level FlightAware Approximate

Login

Don't have an account? Register now (free) for customized features, flight alerts, and more!